<?xml version="1.0"?>
<gpx xmlns="http://www.topografix.com/GPX/1/1" version="1.1" creator="afstandmeten.nl" xmlns:xsi="http://www.w3.org/2001/XMLSchema-instance" xsi:schemaLocation="http://www.topografix.com/GPX/1/1 http://www.topografix.com/GPX/1/1/gpx.xsd">
  <trk>
    <name>GBM_17K_2026</name>
    <desc/>
    <trkseg>
      <trkpt lat="51.0409775" lon="4.3243751">
        <ele>0.00000</ele>
        <time>2026-05-02T00:00:00Z</time>
      </trkpt>
      <trkpt lat="51.044726" lon="4.32058">
        <ele>0.00000</ele>
        <time>2026-05-02T00:01:43Z</time>
      </trkpt>
      <trkpt lat="51.044966" lon="4.320247">
        <ele>0.00000</ele>
        <time>2026-05-02T00:01:51Z</time>
      </trkpt>
      <trkpt lat="51.045818" lon="4.318663">
        <ele>0.00000</ele>
        <time>2026-05-02T00:02:21Z</time>
      </trkpt>
      <trkpt lat="51.046092" lon="4.31825">
        <ele>0.00000</ele>
        <time>2026-05-02T00:02:30Z</time>
      </trkpt>
      <trkpt lat="51.046917" lon="4.317195">
        <ele>0.00000</ele>
        <time>2026-05-02T00:02:54Z</time>
      </trkpt>
      <trkpt lat="51.047137" lon="4.316837">
        <ele>0.00000</ele>
        <time>2026-05-02T00:03:02Z</time>
      </trkpt>
      <trkpt lat="51.047103" lon="4.316791">
        <ele>0.00000</ele>
        <time>2026-05-02T00:03:03Z</time>
      </trkpt>
      <trkpt lat="51.046303" lon="4.314997">
        <ele>0.00000</ele>
        <time>2026-05-02T00:03:35Z</time>
      </trkpt>
      <trkpt lat="51.046213" lon="4.314859">
        <ele>0.00000</ele>
        <time>2026-05-02T00:03:38Z</time>
      </trkpt>
      <trkpt lat="51.046039" lon="4.314739">
        <ele>0.00000</ele>
        <time>2026-05-02T00:03:42Z</time>
      </trkpt>
      <trkpt lat="51.045851" lon="4.314533">
        <ele>0.00000</ele>
        <time>2026-05-02T00:03:47Z</time>
      </trkpt>
      <trkpt lat="51.04537" lon="4.313771">
        <ele>0.00000</ele>
        <time>2026-05-02T00:04:03Z</time>
      </trkpt>
      <trkpt lat="51.044449" lon="4.312697">
        <ele>0.00000</ele>
        <time>2026-05-02T00:04:30Z</time>
      </trkpt>
      <trkpt lat="51.043924" lon="4.311941">
        <ele>0.00000</ele>
        <time>2026-05-02T00:04:46Z</time>
      </trkpt>
      <trkpt lat="51.042124" lon="4.310012">
        <ele>0.00000</ele>
        <time>2026-05-02T00:05:36Z</time>
      </trkpt>
      <trkpt lat="51.042077" lon="4.309988">
        <ele>0.00000</ele>
        <time>2026-05-02T00:05:37Z</time>
      </trkpt>
      <trkpt lat="51.041957" lon="4.310186">
        <ele>0.00000</ele>
        <time>2026-05-02T00:05:41Z</time>
      </trkpt>
      <trkpt lat="51.04189" lon="4.310236">
        <ele>0.00000</ele>
        <time>2026-05-02T00:05:43Z</time>
      </trkpt>
      <trkpt lat="51.04139" lon="4.310233">
        <ele>0.00000</ele>
        <time>2026-05-02T00:05:55Z</time>
      </trkpt>
      <trkpt lat="51.041264" lon="4.310186">
        <ele>0.00000</ele>
        <time>2026-05-02T00:05:58Z</time>
      </trkpt>
      <trkpt lat="51.041135" lon="4.309993">
        <ele>0.00000</ele>
        <time>2026-05-02T00:06:02Z</time>
      </trkpt>
      <trkpt lat="51.040317" lon="4.309032">
        <ele>0.00000</ele>
        <time>2026-05-02T00:06:25Z</time>
      </trkpt>
      <trkpt lat="51.04005" lon="4.308893">
        <ele>0.00000</ele>
        <time>2026-05-02T00:06:32Z</time>
      </trkpt>
      <trkpt lat="51.039014" lon="4.30813">
        <ele>0.00000</ele>
        <time>2026-05-02T00:06:58Z</time>
      </trkpt>
      <trkpt lat="51.037684" lon="4.306467">
        <ele>0.00000</ele>
        <time>2026-05-02T00:07:38Z</time>
      </trkpt>
      <trkpt lat="51.037379" lon="4.306753">
        <ele>0.00000</ele>
        <time>2026-05-02T00:07:46Z</time>
      </trkpt>
      <trkpt lat="51.037134" lon="4.306909">
        <ele>0.00000</ele>
        <time>2026-05-02T00:07:52Z</time>
      </trkpt>
      <trkpt lat="51.036818" lon="4.306913">
        <ele>0.00000</ele>
        <time>2026-05-02T00:07:59Z</time>
      </trkpt>
      <trkpt lat="51.031517" lon="4.301744">
        <ele>0.00000</ele>
        <time>2026-05-02T00:10:23Z</time>
      </trkpt>
      <trkpt lat="51.030845" lon="4.303594">
        <ele>0.00000</ele>
        <time>2026-05-02T00:10:54Z</time>
      </trkpt>
      <trkpt lat="51.030708" lon="4.303821">
        <ele>0.00000</ele>
        <time>2026-05-02T00:10:59Z</time>
      </trkpt>
      <trkpt lat="51.030554" lon="4.304007">
        <ele>0.00000</ele>
        <time>2026-05-02T00:11:03Z</time>
      </trkpt>
      <trkpt lat="51.029355" lon="4.304961">
        <ele>0.00000</ele>
        <time>2026-05-02T00:11:34Z</time>
      </trkpt>
      <trkpt lat="51.029287" lon="4.30507">
        <ele>0.00000</ele>
        <time>2026-05-02T00:11:37Z</time>
      </trkpt>
      <trkpt lat="51.029061" lon="4.306297">
        <ele>0.00000</ele>
        <time>2026-05-02T00:11:55Z</time>
      </trkpt>
      <trkpt lat="51.029079" lon="4.307009">
        <ele>0.00000</ele>
        <time>2026-05-02T00:12:06Z</time>
      </trkpt>
      <trkpt lat="51.028928" lon="4.307039">
        <ele>0.00000</ele>
        <time>2026-05-02T00:12:09Z</time>
      </trkpt>
      <trkpt lat="51.027833" lon="4.30475">
        <ele>0.00000</ele>
        <time>2026-05-02T00:12:51Z</time>
      </trkpt>
      <trkpt lat="51.02754" lon="4.303937">
        <ele>0.00000</ele>
        <time>2026-05-02T00:13:05Z</time>
      </trkpt>
      <trkpt lat="51.027323" lon="4.303528">
        <ele>0.00000</ele>
        <time>2026-05-02T00:13:13Z</time>
      </trkpt>
      <trkpt lat="51.026353" lon="4.302011">
        <ele>0.00000</ele>
        <time>2026-05-02T00:13:44Z</time>
      </trkpt>
      <trkpt lat="51.02519" lon="4.303744">
        <ele>0.00000</ele>
        <time>2026-05-02T00:14:21Z</time>
      </trkpt>
      <trkpt lat="51.025027" lon="4.303902">
        <ele>0.00000</ele>
        <time>2026-05-02T00:14:25Z</time>
      </trkpt>
      <trkpt lat="51.02488" lon="4.303957">
        <ele>0.00000</ele>
        <time>2026-05-02T00:14:29Z</time>
      </trkpt>
      <trkpt lat="51.024418" lon="4.303926">
        <ele>0.00000</ele>
        <time>2026-05-02T00:14:40Z</time>
      </trkpt>
      <trkpt lat="51.024006" lon="4.304121">
        <ele>0.00000</ele>
        <time>2026-05-02T00:14:50Z</time>
      </trkpt>
      <trkpt lat="51.022922" lon="4.30432">
        <ele>0.00000</ele>
        <time>2026-05-02T00:15:15Z</time>
      </trkpt>
      <trkpt lat="51.022746" lon="4.304488">
        <ele>0.00000</ele>
        <time>2026-05-02T00:15:20Z</time>
      </trkpt>
      <trkpt lat="51.022415" lon="4.305019">
        <ele>0.00000</ele>
        <time>2026-05-02T00:15:31Z</time>
      </trkpt>
      <trkpt lat="51.021718" lon="4.305274">
        <ele>0.00000</ele>
        <time>2026-05-02T00:15:47Z</time>
      </trkpt>
      <trkpt lat="51.021655" lon="4.30534">
        <ele>0.00000</ele>
        <time>2026-05-02T00:15:49Z</time>
      </trkpt>
      <trkpt lat="51.021611" lon="4.305908">
        <ele>0.00000</ele>
        <time>2026-05-02T00:15:57Z</time>
      </trkpt>
      <trkpt lat="51.021563" lon="4.305997">
        <ele>0.00000</ele>
        <time>2026-05-02T00:15:59Z</time>
      </trkpt>
      <trkpt lat="51.019701" lon="4.307591">
        <ele>0.00000</ele>
        <time>2026-05-02T00:16:48Z</time>
      </trkpt>
      <trkpt lat="51.019593" lon="4.30757">
        <ele>0.00000</ele>
        <time>2026-05-02T00:16:50Z</time>
      </trkpt>
      <trkpt lat="51.018854" lon="4.304354">
        <ele>0.00000</ele>
        <time>2026-05-02T00:17:40Z</time>
      </trkpt>
      <trkpt lat="51.018673" lon="4.303846">
        <ele>0.00000</ele>
        <time>2026-05-02T00:17:49Z</time>
      </trkpt>
      <trkpt lat="51.01867" lon="4.303736">
        <ele>0.00000</ele>
        <time>2026-05-02T00:17:50Z</time>
      </trkpt>
      <trkpt lat="51.018692" lon="4.303641">
        <ele>0.00000</ele>
        <time>2026-05-02T00:17:52Z</time>
      </trkpt>
      <trkpt lat="51.018833" lon="4.303437">
        <ele>0.00000</ele>
        <time>2026-05-02T00:17:56Z</time>
      </trkpt>
      <trkpt lat="51.019609" lon="4.30279">
        <ele>0.00000</ele>
        <time>2026-05-02T00:18:17Z</time>
      </trkpt>
      <trkpt lat="51.019671" lon="4.302622">
        <ele>0.00000</ele>
        <time>2026-05-02T00:18:19Z</time>
      </trkpt>
      <trkpt lat="51.019655" lon="4.302498">
        <ele>0.00000</ele>
        <time>2026-05-02T00:18:21Z</time>
      </trkpt>
      <trkpt lat="51.018408" lon="4.29954">
        <ele>0.00000</ele>
        <time>2026-05-02T00:19:13Z</time>
      </trkpt>
      <trkpt lat="51.018305" lon="4.299409">
        <ele>0.00000</ele>
        <time>2026-05-02T00:19:16Z</time>
      </trkpt>
      <trkpt lat="51.017981" lon="4.299215">
        <ele>0.00000</ele>
        <time>2026-05-02T00:19:24Z</time>
      </trkpt>
      <trkpt lat="51.017668" lon="4.298855">
        <ele>0.00000</ele>
        <time>2026-05-02T00:19:33Z</time>
      </trkpt>
      <trkpt lat="51.017508" lon="4.298763">
        <ele>0.00000</ele>
        <time>2026-05-02T00:19:37Z</time>
      </trkpt>
      <trkpt lat="51.017308" lon="4.298816">
        <ele>0.00000</ele>
        <time>2026-05-02T00:19:42Z</time>
      </trkpt>
      <trkpt lat="51.017046" lon="4.298946">
        <ele>0.00000</ele>
        <time>2026-05-02T00:19:48Z</time>
      </trkpt>
      <trkpt lat="51.01681" lon="4.298943">
        <ele>0.00000</ele>
        <time>2026-05-02T00:19:54Z</time>
      </trkpt>
      <trkpt lat="51.016724" lon="4.298855">
        <ele>0.00000</ele>
        <time>2026-05-02T00:19:56Z</time>
      </trkpt>
      <trkpt lat="51.01644" lon="4.298239">
        <ele>0.00000</ele>
        <time>2026-05-02T00:20:07Z</time>
      </trkpt>
      <trkpt lat="51.016166" lon="4.297979">
        <ele>0.00000</ele>
        <time>2026-05-02T00:20:15Z</time>
      </trkpt>
      <trkpt lat="51.014825" lon="4.294726">
        <ele>0.00000</ele>
        <time>2026-05-02T00:21:11Z</time>
      </trkpt>
      <trkpt lat="51.015771" lon="4.293571">
        <ele>0.00000</ele>
        <time>2026-05-02T00:21:39Z</time>
      </trkpt>
      <trkpt lat="51.012997" lon="4.288561">
        <ele>0.00000</ele>
        <time>2026-05-02T00:23:16Z</time>
      </trkpt>
      <trkpt lat="51.01333" lon="4.288281">
        <ele>0.00000</ele>
        <time>2026-05-02T00:23:25Z</time>
      </trkpt>
      <trkpt lat="51.013467" lon="4.288202">
        <ele>0.00000</ele>
        <time>2026-05-02T00:23:28Z</time>
      </trkpt>
      <trkpt lat="51.01486" lon="4.28802">
        <ele>0.00000</ele>
        <time>2026-05-02T00:24:01Z</time>
      </trkpt>
      <trkpt lat="51.015435" lon="4.288109">
        <ele>0.00000</ele>
        <time>2026-05-02T00:24:14Z</time>
      </trkpt>
      <trkpt lat="51.015844" lon="4.288337">
        <ele>0.00000</ele>
        <time>2026-05-02T00:24:24Z</time>
      </trkpt>
      <trkpt lat="51.016194" lon="4.288361">
        <ele>0.00000</ele>
        <time>2026-05-02T00:24:32Z</time>
      </trkpt>
      <trkpt lat="51.016311" lon="4.288409">
        <ele>0.00000</ele>
        <time>2026-05-02T00:24:35Z</time>
      </trkpt>
      <trkpt lat="51.016621" lon="4.288684">
        <ele>0.00000</ele>
        <time>2026-05-02T00:24:43Z</time>
      </trkpt>
      <trkpt lat="51.0168" lon="4.288783">
        <ele>0.00000</ele>
        <time>2026-05-02T00:24:48Z</time>
      </trkpt>
      <trkpt lat="51.017098" lon="4.28885">
        <ele>0.00000</ele>
        <time>2026-05-02T00:24:55Z</time>
      </trkpt>
      <trkpt lat="51.017362" lon="4.288868">
        <ele>0.00000</ele>
        <time>2026-05-02T00:25:01Z</time>
      </trkpt>
      <trkpt lat="51.017651" lon="4.288672">
        <ele>0.00000</ele>
        <time>2026-05-02T00:25:08Z</time>
      </trkpt>
      <trkpt lat="51.017686" lon="4.288682">
        <ele>0.00000</ele>
        <time>2026-05-02T00:25:09Z</time>
      </trkpt>
      <trkpt lat="51.01771" lon="4.288568">
        <ele>0.00000</ele>
        <time>2026-05-02T00:25:11Z</time>
      </trkpt>
      <trkpt lat="51.017911" lon="4.288366">
        <ele>0.00000</ele>
        <time>2026-05-02T00:25:16Z</time>
      </trkpt>
      <trkpt lat="51.017921" lon="4.288285">
        <ele>0.00000</ele>
        <time>2026-05-02T00:25:17Z</time>
      </trkpt>
      <trkpt lat="51.017795" lon="4.287716">
        <ele>0.00000</ele>
        <time>2026-05-02T00:25:26Z</time>
      </trkpt>
      <trkpt lat="51.017783" lon="4.287557">
        <ele>0.00000</ele>
        <time>2026-05-02T00:25:28Z</time>
      </trkpt>
      <trkpt lat="51.018279" lon="4.286622">
        <ele>0.00000</ele>
        <time>2026-05-02T00:25:46Z</time>
      </trkpt>
      <trkpt lat="51.019031" lon="4.285564">
        <ele>0.00000</ele>
        <time>2026-05-02T00:26:09Z</time>
      </trkpt>
      <trkpt lat="51.019082" lon="4.285443">
        <ele>0.00000</ele>
        <time>2026-05-02T00:26:12Z</time>
      </trkpt>
      <trkpt lat="51.018521" lon="4.284586">
        <ele>0.00000</ele>
        <time>2026-05-02T00:26:30Z</time>
      </trkpt>
      <trkpt lat="51.018461" lon="4.284629">
        <ele>0.00000</ele>
        <time>2026-05-02T00:26:31Z</time>
      </trkpt>
      <trkpt lat="51.018367" lon="4.284614">
        <ele>0.00000</ele>
        <time>2026-05-02T00:26:33Z</time>
      </trkpt>
      <trkpt lat="51.017763" lon="4.283893">
        <ele>0.00000</ele>
        <time>2026-05-02T00:26:51Z</time>
      </trkpt>
      <trkpt lat="51.017622" lon="4.283527">
        <ele>0.00000</ele>
        <time>2026-05-02T00:26:57Z</time>
      </trkpt>
      <trkpt lat="51.017713" lon="4.283433">
        <ele>0.00000</ele>
        <time>2026-05-02T00:27:00Z</time>
      </trkpt>
      <trkpt lat="51.017882" lon="4.283106">
        <ele>0.00000</ele>
        <time>2026-05-02T00:27:06Z</time>
      </trkpt>
      <trkpt lat="51.018162" lon="4.282342">
        <ele>0.00000</ele>
        <time>2026-05-02T00:27:19Z</time>
      </trkpt>
      <trkpt lat="51.018403" lon="4.280929">
        <ele>0.00000</ele>
        <time>2026-05-02T00:27:40Z</time>
      </trkpt>
      <trkpt lat="51.018524" lon="4.280551">
        <ele>0.00000</ele>
        <time>2026-05-02T00:27:46Z</time>
      </trkpt>
      <trkpt lat="51.018622" lon="4.280395">
        <ele>0.00000</ele>
        <time>2026-05-02T00:27:49Z</time>
      </trkpt>
      <trkpt lat="51.019443" lon="4.279486">
        <ele>0.00000</ele>
        <time>2026-05-02T00:28:13Z</time>
      </trkpt>
      <trkpt lat="51.01954" lon="4.27941">
        <ele>0.00000</ele>
        <time>2026-05-02T00:28:15Z</time>
      </trkpt>
      <trkpt lat="51.020678" lon="4.278826">
        <ele>0.00000</ele>
        <time>2026-05-02T00:28:43Z</time>
      </trkpt>
      <trkpt lat="51.021629" lon="4.277629">
        <ele>0.00000</ele>
        <time>2026-05-02T00:29:11Z</time>
      </trkpt>
      <trkpt lat="51.021728" lon="4.277543">
        <ele>0.00000</ele>
        <time>2026-05-02T00:29:13Z</time>
      </trkpt>
      <trkpt lat="51.023389" lon="4.276894">
        <ele>0.00000</ele>
        <time>2026-05-02T00:29:53Z</time>
      </trkpt>
      <trkpt lat="51.023502" lon="4.276775">
        <ele>0.00000</ele>
        <time>2026-05-02T00:29:56Z</time>
      </trkpt>
      <trkpt lat="51.024333" lon="4.275444">
        <ele>0.00000</ele>
        <time>2026-05-02T00:30:24Z</time>
      </trkpt>
      <trkpt lat="51.025914" lon="4.272046">
        <ele>0.00000</ele>
        <time>2026-05-02T00:31:25Z</time>
      </trkpt>
      <trkpt lat="51.026564" lon="4.269787">
        <ele>0.00000</ele>
        <time>2026-05-02T00:32:01Z</time>
      </trkpt>
      <trkpt lat="51.026524" lon="4.269272">
        <ele>0.00000</ele>
        <time>2026-05-02T00:32:09Z</time>
      </trkpt>
      <trkpt lat="51.026555" lon="4.269011">
        <ele>0.00000</ele>
        <time>2026-05-02T00:32:13Z</time>
      </trkpt>
      <trkpt lat="51.026841" lon="4.268662">
        <ele>0.00000</ele>
        <time>2026-05-02T00:32:21Z</time>
      </trkpt>
      <trkpt lat="51.026957" lon="4.268473">
        <ele>0.00000</ele>
        <time>2026-05-02T00:32:25Z</time>
      </trkpt>
      <trkpt lat="51.027232" lon="4.267844">
        <ele>0.00000</ele>
        <time>2026-05-02T00:32:36Z</time>
      </trkpt>
      <trkpt lat="51.027629" lon="4.267497">
        <ele>0.00000</ele>
        <time>2026-05-02T00:32:47Z</time>
      </trkpt>
      <trkpt lat="51.028011" lon="4.267244">
        <ele>0.00000</ele>
        <time>2026-05-02T00:32:56Z</time>
      </trkpt>
      <trkpt lat="51.028646" lon="4.267062">
        <ele>0.00000</ele>
        <time>2026-05-02T00:33:11Z</time>
      </trkpt>
      <trkpt lat="51.028913" lon="4.267041">
        <ele>0.00000</ele>
        <time>2026-05-02T00:33:17Z</time>
      </trkpt>
      <trkpt lat="51.030494" lon="4.267228">
        <ele>0.00000</ele>
        <time>2026-05-02T00:33:54Z</time>
      </trkpt>
      <trkpt lat="51.031659" lon="4.264757">
        <ele>0.00000</ele>
        <time>2026-05-02T00:34:39Z</time>
      </trkpt>
      <trkpt lat="51.032485" lon="4.263445">
        <ele>0.00000</ele>
        <time>2026-05-02T00:35:06Z</time>
      </trkpt>
      <trkpt lat="51.032601" lon="4.263656">
        <ele>0.00000</ele>
        <time>2026-05-02T00:35:10Z</time>
      </trkpt>
      <trkpt lat="51.032752" lon="4.263803">
        <ele>0.00000</ele>
        <time>2026-05-02T00:35:14Z</time>
      </trkpt>
      <trkpt lat="51.033129" lon="4.264068">
        <ele>0.00000</ele>
        <time>2026-05-02T00:35:24Z</time>
      </trkpt>
      <trkpt lat="51.033253" lon="4.264227">
        <ele>0.00000</ele>
        <time>2026-05-02T00:35:28Z</time>
      </trkpt>
      <trkpt lat="51.035624" lon="4.269092">
        <ele>0.00000</ele>
        <time>2026-05-02T00:36:57Z</time>
      </trkpt>
      <trkpt lat="51.036094" lon="4.269955">
        <ele>0.00000</ele>
        <time>2026-05-02T00:37:14Z</time>
      </trkpt>
      <trkpt lat="51.03766" lon="4.273332">
        <ele>0.00000</ele>
        <time>2026-05-02T00:38:15Z</time>
      </trkpt>
      <trkpt lat="51.037798" lon="4.273525">
        <ele>0.00000</ele>
        <time>2026-05-02T00:38:19Z</time>
      </trkpt>
      <trkpt lat="51.037947" lon="4.273523">
        <ele>0.00000</ele>
        <time>2026-05-02T00:38:23Z</time>
      </trkpt>
      <trkpt lat="51.039725" lon="4.2729">
        <ele>0.00000</ele>
        <time>2026-05-02T00:39:05Z</time>
      </trkpt>
      <trkpt lat="51.039795" lon="4.272932">
        <ele>0.00000</ele>
        <time>2026-05-02T00:39:06Z</time>
      </trkpt>
      <trkpt lat="51.040331" lon="4.276089">
        <ele>0.00000</ele>
        <time>2026-05-02T00:39:54Z</time>
      </trkpt>
      <trkpt lat="51.039846" lon="4.28238">
        <ele>0.00000</ele>
        <time>2026-05-02T00:41:26Z</time>
      </trkpt>
      <trkpt lat="51.039625" lon="4.283293">
        <ele>0.00000</ele>
        <time>2026-05-02T00:41:41Z</time>
      </trkpt>
      <trkpt lat="51.039637" lon="4.283424">
        <ele>0.00000</ele>
        <time>2026-05-02T00:41:43Z</time>
      </trkpt>
      <trkpt lat="51.040205" lon="4.28513">
        <ele>0.00000</ele>
        <time>2026-05-02T00:42:11Z</time>
      </trkpt>
      <trkpt lat="51.040195" lon="4.285257">
        <ele>0.00000</ele>
        <time>2026-05-02T00:42:13Z</time>
      </trkpt>
      <trkpt lat="51.040165" lon="4.285328">
        <ele>0.00000</ele>
        <time>2026-05-02T00:42:14Z</time>
      </trkpt>
      <trkpt lat="51.040073" lon="4.285429">
        <ele>0.00000</ele>
        <time>2026-05-02T00:42:16Z</time>
      </trkpt>
      <trkpt lat="51.039566" lon="4.285743">
        <ele>0.00000</ele>
        <time>2026-05-02T00:42:29Z</time>
      </trkpt>
      <trkpt lat="51.039491" lon="4.285845">
        <ele>0.00000</ele>
        <time>2026-05-02T00:42:31Z</time>
      </trkpt>
      <trkpt lat="51.039492" lon="4.285999">
        <ele>0.00000</ele>
        <time>2026-05-02T00:42:34Z</time>
      </trkpt>
      <trkpt lat="51.039892" lon="4.288328">
        <ele>0.00000</ele>
        <time>2026-05-02T00:43:09Z</time>
      </trkpt>
      <trkpt lat="51.038374" lon="4.289758">
        <ele>0.00000</ele>
        <time>2026-05-02T00:43:50Z</time>
      </trkpt>
      <trkpt lat="51.039193" lon="4.296352">
        <ele>0.00000</ele>
        <time>2026-05-02T00:45:28Z</time>
      </trkpt>
      <trkpt lat="51.039257" lon="4.29771">
        <ele>0.00000</ele>
        <time>2026-05-02T00:45:47Z</time>
      </trkpt>
      <trkpt lat="51.038992" lon="4.299496">
        <ele>0.00000</ele>
        <time>2026-05-02T00:46:14Z</time>
      </trkpt>
      <trkpt lat="51.03937" lon="4.299368">
        <ele>0.00000</ele>
        <time>2026-05-02T00:46:23Z</time>
      </trkpt>
      <trkpt lat="51.039999" lon="4.299397">
        <ele>0.00000</ele>
        <time>2026-05-02T00:46:38Z</time>
      </trkpt>
      <trkpt lat="51.047813" lon="4.300757">
        <ele>0.00000</ele>
        <time>2026-05-02T00:49:40Z</time>
      </trkpt>
      <trkpt lat="51.047921" lon="4.301412">
        <ele>0.00000</ele>
        <time>2026-05-02T00:49:50Z</time>
      </trkpt>
      <trkpt lat="51.047743" lon="4.302409">
        <ele>0.00000</ele>
        <time>2026-05-02T00:50:05Z</time>
      </trkpt>
      <trkpt lat="51.047891" lon="4.303153">
        <ele>0.00000</ele>
        <time>2026-05-02T00:50:16Z</time>
      </trkpt>
      <trkpt lat="51.047962" lon="4.303378">
        <ele>0.00000</ele>
        <time>2026-05-02T00:50:20Z</time>
      </trkpt>
      <trkpt lat="51.048065" lon="4.3035">
        <ele>0.00000</ele>
        <time>2026-05-02T00:50:23Z</time>
      </trkpt>
      <trkpt lat="51.04928" lon="4.304114">
        <ele>0.00000</ele>
        <time>2026-05-02T00:50:52Z</time>
      </trkpt>
      <trkpt lat="51.049595" lon="4.304383">
        <ele>0.00000</ele>
        <time>2026-05-02T00:51:00Z</time>
      </trkpt>
      <trkpt lat="51.049762" lon="4.304688">
        <ele>0.00000</ele>
        <time>2026-05-02T00:51:06Z</time>
      </trkpt>
      <trkpt lat="51.050358" lon="4.30662">
        <ele>0.00000</ele>
        <time>2026-05-02T00:51:38Z</time>
      </trkpt>
      <trkpt lat="51.051486" lon="4.309646">
        <ele>0.00000</ele>
        <time>2026-05-02T00:52:29Z</time>
      </trkpt>
      <trkpt lat="51.050664" lon="4.312286">
        <ele>0.00000</ele>
        <time>2026-05-02T00:53:12Z</time>
      </trkpt>
      <trkpt lat="51.050498" lon="4.312583">
        <ele>0.00000</ele>
        <time>2026-05-02T00:53:18Z</time>
      </trkpt>
      <trkpt lat="51.050259" lon="4.312858">
        <ele>0.00000</ele>
        <time>2026-05-02T00:53:24Z</time>
      </trkpt>
      <trkpt lat="51.048762" lon="4.313865">
        <ele>0.00000</ele>
        <time>2026-05-02T00:54:02Z</time>
      </trkpt>
      <trkpt lat="51.048537" lon="4.314066">
        <ele>0.00000</ele>
        <time>2026-05-02T00:54:08Z</time>
      </trkpt>
      <trkpt lat="51.048198" lon="4.314497">
        <ele>0.00000</ele>
        <time>2026-05-02T00:54:18Z</time>
      </trkpt>
      <trkpt lat="51.047103" lon="4.316791">
        <ele>0.00000</ele>
        <time>2026-05-02T00:55:00Z</time>
      </trkpt>
      <trkpt lat="51.047137" lon="4.316837">
        <ele>0.00000</ele>
        <time>2026-05-02T00:55:01Z</time>
      </trkpt>
      <trkpt lat="51.046917" lon="4.317195">
        <ele>0.00000</ele>
        <time>2026-05-02T00:55:08Z</time>
      </trkpt>
      <trkpt lat="51.046092" lon="4.31825">
        <ele>0.00000</ele>
        <time>2026-05-02T00:55:33Z</time>
      </trkpt>
      <trkpt lat="51.044966" lon="4.320247">
        <ele>0.00000</ele>
        <time>2026-05-02T00:56:12Z</time>
      </trkpt>
      <trkpt lat="51.044726" lon="4.32058">
        <ele>0.00000</ele>
        <time>2026-05-02T00:56:19Z</time>
      </trkpt>
      <trkpt lat="51.043131" lon="4.322192">
        <ele>0.00000</ele>
        <time>2026-05-02T00:57:03Z</time>
      </trkpt>
      <trkpt lat="51.043266" lon="4.324478">
        <ele>0.00000</ele>
        <time>2026-05-02T00:57:37Z</time>
      </trkpt>
      <trkpt lat="51.0432637" lon="4.3258388">
        <ele>0.00000</ele>
        <time>2026-05-02T00:57:56Z</time>
      </trkpt>
      <trkpt lat="51.043269" lon="4.325899">
        <ele>0.00000</ele>
        <time>2026-05-02T00:57:57Z</time>
      </trkpt>
      <trkpt lat="51.0433238" lon="4.3270898">
        <ele>0.00000</ele>
        <time>2026-05-02T00:58:15Z</time>
      </trkpt>
      <trkpt lat="51.0432462" lon="4.3271606">
        <ele>0.00000</ele>
        <time>2026-05-02T00:58:17Z</time>
      </trkpt>
      <trkpt lat="51.0432813" lon="4.3275512">
        <ele>0.00000</ele>
        <time>2026-05-02T00:58:23Z</time>
      </trkpt>
      <trkpt lat="51.0429317" lon="4.327637">
        <ele>0.00000</ele>
        <time>2026-05-02T00:58:31Z</time>
      </trkpt>
      <trkpt lat="51.0428482" lon="4.3277357">
        <ele>0.00000</ele>
        <time>2026-05-02T00:58:33Z</time>
      </trkpt>
      <trkpt lat="51.0422482" lon="4.3284761">
        <ele>0.00000</ele>
        <time>2026-05-02T00:58:51Z</time>
      </trkpt>
      <trkpt lat="51.0425064" lon="4.3291305">
        <ele>0.00000</ele>
        <time>2026-05-02T00:59:02Z</time>
      </trkpt>
      <trkpt lat="51.0420639" lon="4.3297913">
        <ele>0.00000</ele>
        <time>2026-05-02T00:59:16Z</time>
      </trkpt>
      <trkpt lat="51.041784" lon="4.329714">
        <ele>0.00000</ele>
        <time>2026-05-02T00:59:23Z</time>
      </trkpt>
      <trkpt lat="51.040969" lon="4.329311">
        <ele>0.00000</ele>
        <time>2026-05-02T00:59:42Z</time>
      </trkpt>
      <trkpt lat="51.041472" lon="4.328655">
        <ele>0.00000</ele>
        <time>2026-05-02T00:59:57Z</time>
      </trkpt>
    </trkseg>
  </trk>
</gpx>

